Time;durP1;ratioP1;P1;durP2;ratioP2;P2;SDS_P1;SDS_P2;PMS_P1;PMS_P2;Temp;Humidity;BMP_temperature;BMP_pressure;BME280_temperature;BME280_humidity;BME280_pressure;Samples;Min_cycle;Max_cycle;Signal;HPM_P1;HPM_P2
2021/12/08 00:01:25;;;;;;;3.80;2.20;;;2.10;99.90;;;;;;5090216;28;20794;-75
2021/12/08 00:03:53;;;;;;;6.13;2.67;;;2.10;99.90;;;;;;5090833;28;20571;-73
2021/12/08 00:06:21;;;;;;;3.73;1.83;;;2.20;99.90;;;;;;5090898;28;20548;-73
2021/12/08 00:09:01;;;;;;;4.20;2.47;;;2.30;99.90;;;;;;5090264;28;20507;-73
2021/12/08 00:14:14;;;;;;;5.27;2.50;;;2.30;99.90;;;;;;5090645;28;20520;-74
2021/12/08 00:16:41;;;;;;;4.20;2.30;;;2.40;99.90;;;;;;5090648;28;20483;-73
2021/12/08 00:19:08;;;;;;;5.20;2.50;;;2.20;99.90;;;;;;5089583;28;20458;-73
2021/12/08 00:21:36;;;;;;;4.23;2.00;;;2.10;99.90;;;;;;5090318;28;20450;-73
2021/12/08 00:24:05;;;;;;;4.33;2.50;;;2.10;99.90;;;;;;5090575;28;20493;-73
2021/12/08 00:26:32;;;;;;;4.40;3.10;;;2.20;99.90;;;;;;5090306;28;20480;-72
2021/12/08 00:28:59;;;;;;;4.77;2.57;;;2.30;99.90;;;;;;5096180;28;20443;-74
2021/12/08 00:31:26;;;;;;;4.30;2.10;;;2.10;99.90;;;;;;5096307;28;20453;-73
2021/12/08 00:33:53;;;;;;;5.77;2.70;;;2.20;99.90;;;;;;5089871;28;20451;-73
2021/12/08 00:36:27;;;;;;;6.07;3.30;;;2.20;99.90;;;;;;5090120;28;20479;-73
2021/12/08 00:38:54;;;;;;;6.03;2.67;;;2.10;99.90;;;;;;5090047;28;20457;-73
2021/12/08 00:41:23;;;;;;;6.10;3.30;;;2.00;99.90;;;;;;5089927;28;20807;-72
2021/12/08 00:43:50;;;;;;;4.60;2.53;;;2.00;99.90;;;;;;5090328;28;20465;-73
2021/12/08 00:46:17;;;;;;;4.30;2.50;;;1.90;99.90;;;;;;5089523;28;20539;-73
2021/12/08 00:48:48;;;;;;;5.03;3.10;;;1.90;99.90;;;;;;5089532;28;20457;-73
2021/12/08 00:51:16;;;;;;;6.57;3.40;;;2.00;99.90;;;;;;5088916;28;20466;-73
2021/12/08 00:53:44;;;;;;;4.80;3.17;;;2.00;99.90;;;;;;5089435;28;20442;-73
2021/12/08 00:56:11;;;;;;;5.37;2.70;;;2.00;99.90;;;;;;5088703;28;20464;-73
2021/12/08 00:58:40;;;;;;;5.40;3.73;;;2.10;99.90;;;;;;5089817;28;20456;-73
2021/12/08 01:01:08;;;;;;;6.60;3.40;;;2.10;99.90;;;;;;5088688;28;20463;-73
2021/12/08 01:03:36;;;;;;;5.83;3.63;;;2.10;99.90;;;;;;5089665;28;20484;-73
2021/12/08 01:06:05;;;;;;;5.43;3.90;;;2.00;99.90;;;;;;5089128;28;20477;-73
2021/12/08 01:08:33;;;;;;;5.73;3.43;;;2.00;99.90;;;;;;5089131;28;20965;-74
2021/12/08 01:11:04;;;;;;;4.37;2.70;;;2.00;99.90;;;;;;5089375;28;20462;-73
2021/12/08 01:13:31;;;;;;;4.63;3.50;;;2.10;99.90;;;;;;5088994;28;21012;-73
2021/12/08 01:16:00;;;;;;;5.80;3.33;;;1.90;99.90;;;;;;5089902;28;20464;-74
2021/12/08 01:18:30;;;;;;;5.20;3.00;;;2.00;99.90;;;;;;5089779;28;20450;-73
2021/12/08 01:21:00;;;;;;;5.63;3.90;;;1.90;99.90;;;;;;5089302;28;21008;-73
2021/12/08 01:23:28;;;;;;;5.67;3.80;;;1.90;99.90;;;;;;5089651;28;20543;-73
2021/12/08 01:25:56;;;;;;;5.17;3.07;;;2.00;99.90;;;;;;5089619;28;20490;-73
2021/12/08 01:28:23;;;;;;;6.50;3.80;;;2.10;99.90;;;;;;5089798;28;20456;-73
2021/12/08 01:30:55;;;;;;;6.77;4.40;;;2.00;99.90;;;;;;5088751;28;20456;-73
2021/12/08 01:33:25;;;;;;;7.43;3.67;;;2.10;99.90;;;;;;5067859;28;20501;-74
2021/12/08 01:35:53;;;;;;;5.13;3.77;;;2.60;99.90;;;;;;5085144;28;21298;-73
2021/12/08 01:38:20;;;;;;;5.90;3.70;;;2.00;99.90;;;;;;5089252;28;20525;-73
2021/12/08 01:40:47;;;;;;;7.20;4.93;;;2.00;99.90;;;;;;5088302;28;20470;-73
2021/12/08 01:43:24;;;;;;;7.07;4.37;;;2.10;99.90;;;;;;5088542;28;21026;-73
2021/12/08 01:45:57;;;;;;;8.37;4.93;;;2.10;99.90;;;;;;5088120;28;20828;-73
2021/12/08 01:48:26;;;;;;;8.77;4.60;;;1.90;99.90;;;;;;5089621;28;20451;-72
2021/12/08 01:50:58;;;;;;;6.47;4.83;;;2.10;99.90;;;;;;5089094;28;20502;-73
2021/12/08 01:53:25;;;;;;;6.77;4.33;;;2.10;99.90;;;;;;5089021;28;20506;-73
2021/12/08 01:55:52;;;;;;;6.23;4.03;;;2.20;99.90;;;;;;5088435;28;20470;-72
2021/12/08 01:58:20;;;;;;;8.00;4.87;;;2.20;99.90;;;;;;5088943;28;20459;-73
2021/12/08 02:00:50;;;;;;;8.53;5.17;;;2.20;99.90;;;;;;5088717;28;20875;-73
2021/12/08 02:03:19;;;;;;;8.20;5.17;;;2.00;99.90;;;;;;5088655;28;20509;-73
2021/12/08 02:05:48;;;;;;;9.03;6.33;;;2.00;99.90;;;;;;5088155;28;20496;-73
2021/12/08 02:08:15;;;;;;;9.97;6.87;;;2.00;99.90;;;;;;5088231;28;20456;-72
2021/12/08 02:10:43;;;;;;;8.83;6.57;;;1.90;99.90;;;;;;5088911;28;20448;-73
2021/12/08 02:13:11;;;;;;;9.53;5.37;;;2.00;99.90;;;;;;5088976;28;20583;-74
2021/12/08 02:15:39;;;;;;;8.60;6.30;;;2.00;99.90;;;;;;5088717;28;20882;-73
2021/12/08 02:18:09;;;;;;;11.30;7.27;;;2.00;99.90;;;;;;5088465;28;20452;-73
2021/12/08 02:20:36;;;;;;;14.37;6.27;;;2.00;99.90;;;;;;5088021;28;20459;-74
2021/12/08 02:23:05;;;;;;;10.13;6.00;;;1.80;99.90;;;;;;5088509;28;20509;-73
2021/12/08 02:25:33;;;;;;;11.67;7.30;;;1.80;99.90;;;;;;5088760;28;21002;-73
2021/12/08 02:28:02;;;;;;;14.80;8.40;;;1.80;99.90;;;;;;5088847;28;20600;-74
2021/12/08 02:30:35;;;;;;;8.97;7.07;;;1.90;99.90;;;;;;5087479;28;20928;-74
2021/12/08 02:47:03;;;;;;;10.73;8.00;;;2.00;99.90;;;;;;5112843;28;20961;-74
2021/12/08 02:49:31;;;;;;;15.73;9.80;;;2.20;99.90;;;;;;5112623;28;20451;-74
2021/12/08 02:51:59;;;;;;;13.83;9.13;;;2.10;99.90;;;;;;5112582;28;20447;-73
2021/12/08 02:54:35;;;;;;;12.73;9.70;;;2.10;99.90;;;;;;5107301;28;21087;-72
2021/12/08 02:57:02;;;;;;;13.83;9.60;;;2.20;99.90;;;;;;5091799;28;20472;-73
2021/12/08 02:59:29;;;;;;;14.43;8.87;;;2.10;99.90;;;;;;5091749;28;20443;-73
2021/12/08 03:01:56;;;;;;;14.00;8.67;;;2.20;99.90;;;;;;5091627;28;20531;-74
2021/12/08 03:04:24;;;;;;;17.83;10.90;;;2.10;99.90;;;;;;5091719;28;20452;-73
2021/12/08 03:06:51;;;;;;;14.30;9.23;;;2.20;99.90;;;;;;5091130;28;20535;-73
2021/12/08 03:09:18;;;;;;;12.37;9.30;;;2.20;99.90;;;;;;5091308;28;20501;-73
2021/12/08 03:11:48;;;;;;;18.23;11.77;;;2.20;99.90;;;;;;5091528;28;20464;-73
2021/12/08 03:14:17;;;;;;;18.43;10.50;;;2.30;99.90;;;;;;5091251;28;20446;-74
2021/12/08 03:16:48;;;;;;;20.20;11.60;;;2.20;99.90;;;;;;5091456;28;20468;-72
2021/12/08 03:19:15;;;;;;;18.90;9.77;;;2.20;99.90;;;;;;5091578;28;20516;-73
2021/12/08 03:21:42;;;;;;;15.50;10.03;;;2.30;99.90;;;;;;5091407;28;20465;-73
2021/12/08 03:24:19;;;;;;;15.77;10.07;;;2.10;99.90;;;;;;5091517;28;20818;-74
2021/12/08 03:26:54;;;;;;;15.90;10.87;;;2.20;99.90;;;;;;5090746;28;20466;-73
2021/12/08 03:29:27;;;;;;;18.63;11.80;;;2.10;99.90;;;;;;5091448;28;20451;-72
2021/12/08 03:32:03;;;;;;;15.30;11.23;;;2.20;99.90;;;;;;5091577;28;20473;-72
2021/12/08 03:34:31;;;;;;;15.33;10.10;;;2.30;99.90;;;;;;5091781;28;20465;-72
2021/12/08 03:36:59;;;;;;;17.53;10.83;;;2.30;99.90;;;;;;5091620;28;20468;-73
2021/12/08 03:39:26;;;;;;;15.67;10.43;;;2.30;99.90;;;;;;5091953;28;20458;-74
2021/12/08 03:41:55;;;;;;;15.27;10.50;;;2.30;99.90;;;;;;5091152;28;20476;-73
2021/12/08 03:44:22;;;;;;;19.27;10.43;;;2.30;99.90;;;;;;5090451;28;20455;-73
2021/12/08 03:46:50;;;;;;;16.83;10.40;;;2.20;99.90;;;;;;5090876;28;20511;-73
2021/12/08 03:49:18;;;;;;;19.73;10.70;;;2.20;99.90;;;;;;5090892;28;20465;-75
2021/12/08 03:51:46;;;;;;;14.13;9.40;;;2.30;99.90;;;;;;5090479;28;20469;-73
2021/12/08 03:54:15;;;;;;;16.77;10.87;;;2.20;99.90;;;;;;5090825;28;20466;-73
2021/12/08 03:56:43;;;;;;;14.57;9.97;;;2.20;99.90;;;;;;5090168;28;20543;-73
2021/12/08 03:59:11;;;;;;;18.03;12.23;;;2.30;99.90;;;;;;5090838;28;20459;-74
2021/12/08 04:01:39;;;;;;;14.20;9.70;;;2.40;99.90;;;;;;5090557;28;20945;-72
2021/12/08 04:04:08;;;;;;;22.27;12.33;;;2.30;99.90;;;;;;5090220;28;20509;-73
2021/12/08 04:06:45;;;;;;;20.73;11.60;;;2.40;99.90;;;;;;5090115;28;20484;-73
2021/12/08 04:09:24;;;;;;;18.40;11.73;;;2.20;99.90;;;;;;5090827;28;20443;-74
2021/12/08 04:11:51;;;;;;;14.70;10.87;;;2.30;99.90;;;;;;5089791;28;20463;-74
2021/12/08 04:14:24;;;;;;;20.07;12.20;;;2.20;99.90;;;;;;5090031;28;20459;-73
2021/12/08 04:16:55;;;;;;;19.40;11.20;;;2.20;99.90;;;;;;5090067;28;20995;-74
2021/12/08 04:19:23;;;;;;;16.13;11.20;;;2.20;99.90;;;;;;5089876;28;20478;-74
2021/12/08 04:21:54;;;;;;;14.80;10.87;;;2.20;99.90;;;;;;5089562;28;20512;-74
2021/12/08 04:24:23;;;;;;;18.77;11.33;;;2.30;99.90;;;;;;5088142;28;20444;-74
2021/12/08 04:26:55;;;;;;;19.20;11.17;;;2.50;99.90;;;;;;5088114;28;20535;-74
2021/12/08 04:29:27;;;;;;;17.60;11.40;;;2.50;99.90;;;;;;5088159;28;20447;-73
2021/12/08 04:31:56;;;;;;;15.47;10.50;;;2.40;99.90;;;;;;5088110;28;20456;-75
2021/12/08 04:34:27;;;;;;;16.77;11.37;;;2.40;99.90;;;;;;5088029;28;20484;-74
2021/12/08 04:37:00;;;;;;;17.17;11.87;;;0.10;99.90;;;;;;5088440;28;20475;-73
2021/12/08 04:39:38;;;;;;;17.87;11.90;;;2.30;99.90;;;;;;5090857;28;20440;-73
2021/12/08 04:42:11;;;;;;;17.80;11.57;;;2.40;99.90;;;;;;5090576;28;20481;-72
2021/12/08 04:44:45;;;;;;;19.37;11.27;;;2.40;99.90;;;;;;5090320;28;20453;-73
2021/12/08 04:47:29;;;;;;;18.03;11.77;;;2.30;99.90;;;;;;5090234;28;20879;-73
2021/12/08 04:52:54;;;;;;;19.27;11.30;;;2.40;99.90;;;;;;5085885;28;20566;-74
2021/12/08 05:04:02;;;;;;;20.93;10.87;;;2.30;99.90;;;;;;5089784;28;20524;-73
2021/12/08 05:06:40;;;;;;;21.50;11.57;;;3.20;99.90;;;;;;5090166;28;20514;-73
2021/12/08 05:09:11;;;;;;;16.60;10.87;;;2.30;99.90;;;;;;5089307;28;20535;-75
2021/12/08 05:11:43;;;;;;;16.43;9.93;;;2.30;99.90;;;;;;5089621;28;20957;-75
2021/12/08 05:14:15;;;;;;;20.90;12.07;;;2.30;99.90;;;;;;5089672;28;20454;-74
2021/12/08 05:16:47;;;;;;;17.60;12.07;;;2.20;99.90;;;;;;5089716;28;20543;-74
2021/12/08 05:19:19;;;;;;;23.50;12.97;;;2.20;99.90;;;;;;5089865;28;20446;-75
2021/12/08 05:21:50;;;;;;;17.70;12.03;;;2.10;99.90;;;;;;5089955;28;20811;-74
2021/12/08 05:24:20;;;;;;;17.93;10.67;;;2.10;99.90;;;;;;5089660;28;20445;-74
2021/12/08 05:26:52;;;;;;;15.30;10.43;;;2.10;99.90;;;;;;5089339;28;20905;-75
2021/12/08 05:29:23;;;;;;;18.33;11.83;;;2.20;99.90;;;;;;5089568;28;20544;-74
2021/12/08 05:31:55;;;;;;;21.70;12.77;;;2.30;99.90;;;;;;5089759;28;20462;-75
2021/12/08 05:34:22;;;;;;;22.10;12.80;;;2.10;99.90;;;;;;5089522;28;20456;-74
2021/12/08 05:36:49;;;;;;;20.33;13.77;;;2.30;99.90;;;;;;5089523;28;20470;-74
2021/12/08 05:39:26;;;;;;;18.40;11.97;;;2.30;99.90;;;;;;5089405;28;20451;-74
2021/12/08 05:41:56;;;;;;;18.60;11.70;;;2.40;99.90;;;;;;5089429;28;20455;-74
2021/12/08 05:44:24;;;;;;;17.10;11.80;;;2.40;99.90;;;;;;5089494;28;20454;-73
2021/12/08 05:46:57;;;;;;;19.70;12.93;;;2.30;99.90;;;;;;5088801;28;20559;-73
2021/12/08 05:49:24;;;;;;;20.10;12.37;;;2.20;99.90;;;;;;5089177;28;20526;-74
2021/12/08 05:51:54;;;;;;;21.50;13.10;;;2.10;99.90;;;;;;5089496;28;20463;-74
2021/12/08 05:54:24;;;;;;;21.80;12.43;;;2.10;99.90;;;;;;5089502;28;20537;-74
2021/12/08 05:56:55;;;;;;;23.40;13.63;;;2.10;99.90;;;;;;5089090;28;20822;-73
2021/12/08 05:59:23;;;;;;;18.17;11.77;;;2.00;99.90;;;;;;5089287;28;20455;-74
2021/12/08 06:01:56;;;;;;;20.57;12.80;;;2.00;99.90;;;;;;5089382;28;20462;-76
2021/12/08 06:04:25;;;;;;;22.17;12.77;;;2.00;99.90;;;;;;5088427;28;20499;-75
2021/12/08 06:06:54;;;;;;;24.33;13.80;;;2.10;99.90;;;;;;5089155;28;20503;-74
2021/12/08 06:09:23;;;;;;;21.10;13.50;;;2.10;99.90;;;;;;5089411;28;20454;-74
2021/12/08 06:11:51;;;;;;;23.50;13.00;;;2.10;99.90;;;;;;5088729;28;20523;-74
2021/12/08 06:14:20;;;;;;;26.90;15.50;;;2.10;99.90;;;;;;5089187;28;20463;-74
2021/12/08 06:16:50;;;;;;;21.10;13.97;;;2.10;99.90;;;;;;5089003;28;20471;-75
2021/12/08 06:19:19;;;;;;;20.10;12.60;;;2.20;99.90;;;;;;5089071;28;20466;-74
2021/12/08 06:21:49;;;;;;;21.37;13.90;;;2.20;99.90;;;;;;5093247;28;20535;-75
2021/12/08 06:24:17;;;;;;;26.33;13.30;;;2.30;99.90;;;;;;5093259;28;20464;-75
2021/12/08 06:26:45;;;;;;;21.43;13.73;;;2.30;99.90;;;;;;5092755;28;21103;-75
2021/12/08 06:29:17;;;;;;;20.23;12.57;;;2.30;99.90;;;;;;5092622;28;20451;-75
2021/12/08 06:31:47;;;;;;;22.83;13.67;;;2.20;99.90;;;;;;5091963;28;20459;-74
2021/12/08 06:34:14;;;;;;;22.47;13.87;;;2.20;99.90;;;;;;5093314;28;20454;-75
2021/12/08 06:36:49;;;;;;;24.70;13.20;;;2.30;99.90;;;;;;5092198;28;20472;-76
2021/12/08 06:39:20;;;;;;;18.50;12.40;;;2.30;99.90;;;;;;5092477;28;20452;-75
2021/12/08 06:41:51;;;;;;;23.60;13.70;;;2.30;99.90;;;;;;5092345;28;20457;-76
2021/12/08 06:44:22;;;;;;;22.93;14.87;;;2.30;99.90;;;;;;5092718;28;20504;-75
2021/12/08 06:46:50;;;;;;;20.67;14.50;;;2.40;99.90;;;;;;5091971;28;20517;-72
2021/12/08 06:49:20;;;;;;;25.60;15.00;;;2.50;99.90;;;;;;5092093;28;20452;-73
2021/12/08 06:51:53;;;;;;;20.97;13.53;;;2.70;99.90;;;;;;5092685;28;20450;-73
2021/12/08 06:54:25;;;;;;;19.57;13.07;;;2.80;99.90;;;;;;5092094;28;20458;-75
2021/12/08 06:56:56;;;;;;;17.83;12.47;;;2.70;99.90;;;;;;5092213;28;20472;-75
2021/12/08 06:59:26;;;;;;;17.03;12.23;;;2.80;99.90;;;;;;5092581;28;20465;-77
2021/12/08 07:02:03;;;;;;;19.90;12.43;;;2.80;99.90;;;;;;5092684;28;20462;-74
2021/12/08 07:04:36;;;;;;;17.40;11.70;;;2.60;99.90;;;;;;5092195;28;20530;-74
2021/12/08 07:07:14;;;;;;;17.63;10.80;;;2.60;99.90;;;;;;5091987;28;20487;-77
2021/12/08 07:09:44;;;;;;;16.53;10.23;;;2.40;99.90;;;;;;5092053;28;20492;-74
2021/12/08 07:12:14;;;;;;;21.70;11.77;;;2.50;99.90;;;;;;5091842;28;20485;-78
2021/12/08 07:14:44;;;;;;;18.70;10.67;;;2.50;99.90;;;;;;5091870;28;20475;-76
2021/12/08 07:17:14;;;;;;;17.97;11.13;;;2.40;99.90;;;;;;5091494;28;20519;-78
2021/12/08 07:19:49;;;;;;;14.80;11.00;;;2.40;99.90;;;;;;5091999;28;20451;-80
2021/12/08 07:22:21;;;;;;;15.63;9.97;;;2.30;99.90;;;;;;5092623;28;20453;-81
2021/12/08 07:24:50;;;;;;;14.87;9.17;;;2.40;99.90;;;;;;5095429;28;20452;-75
2021/12/08 07:27:21;;;;;;;15.10;9.50;;;2.40;99.90;;;;;;5099877;28;20492;-75
2021/12/08 07:29:49;;;;;;;15.97;10.83;;;2.40;99.90;;;;;;5098731;28;20537;-72
2021/12/08 07:32:21;;;;;;;17.37;10.10;;;2.30;99.90;;;;;;5089957;28;20455;-72
2021/12/08 07:34:52;;;;;;;14.30;10.97;;;2.30;99.90;;;;;;5091320;28;20461;-70
2021/12/08 07:37:25;;;;;;;16.57;11.13;;;2.10;99.90;;;;;;5091279;28;20482;-77
2021/12/08 07:39:59;;;;;;;17.50;12.50;;;2.20;99.90;;;;;;5091195;28;20456;-73
2021/12/08 07:42:31;;;;;;;19.37;11.83;;;2.30;99.90;;;;;;5091442;28;20458;-77
2021/12/08 07:45:01;;;;;;;16.13;10.83;;;2.40;99.90;;;;;;5091440;28;20806;-78
2021/12/08 07:47:30;;;;;;;15.00;10.60;;;2.40;99.90;;;;;;5091396;28;20496;-78
2021/12/08 07:50:01;;;;;;;16.03;10.90;;;2.50;99.90;;;;;;5091767;28;20483;-76
2021/12/08 07:52:33;;;;;;;15.53;11.00;;;2.60;99.90;;;;;;5091442;28;20485;-82
2021/12/08 07:55:02;;;;;;;19.70;12.10;;;2.50;99.90;;;;;;5091306;28;20545;-80
2021/12/08 07:57:34;;;;;;;16.63;11.70;;;2.50;99.90;;;;;;5091230;28;20822;-75
2021/12/08 08:00:08;;;;;;;21.87;12.50;;;2.50;99.90;;;;;;5090756;28;20552;-76
2021/12/08 08:02:35;;;;;;;21.37;12.10;;;2.60;99.90;;;;;;5090769;28;20823;-74
2021/12/08 08:05:05;;;;;;;15.80;10.90;;;2.70;99.90;;;;;;5090372;28;20449;-75
2021/12/08 08:07:33;;;;;;;15.73;11.00;;;2.20;99.90;;;;;;5090806;28;20493;-73
2021/12/08 08:10:02;;;;;;;18.37;11.90;;;2.40;99.90;;;;;;5090442;28;20586;-74
2021/12/08 08:12:32;;;;;;;15.87;11.77;;;2.40;99.90;;;;;;5090500;28;20488;-70
2021/12/08 08:15:02;;;;;;;17.67;11.40;;;2.50;99.90;;;;;;5090620;28;20458;-69
2021/12/08 08:17:36;;;;;;;20.10;12.63;;;2.60;99.90;;;;;;5090438;28;20897;-71
2021/12/08 08:20:08;;;;;;;17.43;11.33;;;2.80;99.90;;;;;;5090216;28;20828;-72
2021/12/08 08:22:36;;;;;;;14.60;10.20;;;2.90;99.90;;;;;;5090401;28;20459;-71
2021/12/08 08:25:09;;;;;;;18.80;12.17;;;2.90;99.90;;;;;;5090811;28;20489;-75
2021/12/08 08:27:38;;;;;;;14.93;10.57;;;2.80;99.90;;;;;;5090600;28;20488;-71
2021/12/08 08:30:08;;;;;;;17.30;10.67;;;2.70;99.90;;;;;;5090848;28;20463;-70
2021/12/08 08:32:38;;;;;;;18.87;10.80;;;2.70;99.90;;;;;;5090713;28;20479;-73
2021/12/08 08:35:11;;;;;;;20.10;11.70;;;2.70;99.90;;;;;;5090760;28;20920;-73
2021/12/08 08:37:41;;;;;;;18.80;11.83;;;2.60;99.90;;;;;;5090128;28;20455;-72
2021/12/08 08:40:20;;;;;;;14.73;11.60;;;2.60;99.90;;;;;;5090527;28;20455;-72
2021/12/08 08:42:50;;;;;;;19.33;11.50;;;2.60;99.90;;;;;;5089976;28;20461;-75
2021/12/08 08:45:21;;;;;;;21.13;14.67;;;2.70;99.90;;;;;;5089377;28;20453;-76
2021/12/08 08:47:52;;;;;;;20.83;12.83;;;2.70;99.90;;;;;;5090002;28;20542;-71
2021/12/08 08:50:26;;;;;;;18.17;11.80;;;3.30;99.90;;;;;;5089813;28;20453;-71
2021/12/08 08:52:58;;;;;;;18.70;10.43;;;2.90;99.90;;;;;;5089933;28;20511;-73
2021/12/08 08:55:28;;;;;;;17.50;11.00;;;2.60;99.90;;;;;;5089487;28;20877;-73
2021/12/08 08:57:56;;;;;;;20.20;11.80;;;3.10;99.90;;;;;;5089980;28;20919;-73
2021/12/08 09:00:31;;;;;;;22.23;11.93;;;3.10;99.90;;;;;;5090011;28;20451;-71
2021/12/08 09:03:00;;;;;;;21.60;13.03;;;3.10;99.90;;;;;;5089663;28;20944;-71
2021/12/08 09:05:30;;;;;;;17.23;11.67;;;3.20;99.90;;;;;;5075179;28;20485;-75
2021/12/08 09:08:01;;;;;;;16.73;11.40;;;3.10;99.90;;;;;;5069647;28;20537;-73
2021/12/08 09:10:33;;;;;;;17.63;12.00;;;3.30;99.90;;;;;;5069630;28;20815;-72
2021/12/08 09:13:04;;;;;;;16.17;11.33;;;3.40;99.90;;;;;;5069040;28;20512;-73
2021/12/08 09:15:37;;;;;;;16.20;11.73;;;3.40;99.90;;;;;;5069364;28;20968;-72
2021/12/08 09:18:11;;;;;;;22.47;14.00;;;3.20;99.90;;;;;;5069280;28;20450;-74
2021/12/08 09:20:44;;;;;;;21.60;11.90;;;3.30;99.90;;;;;;5069122;28;20507;-73
2021/12/08 09:23:22;;;;;;;18.40;10.73;;;3.40;99.90;;;;;;5069298;28;20469;-72
2021/12/08 09:25:53;;;;;;;14.73;11.17;;;3.40;99.90;;;;;;5069337;28;20959;-69
2021/12/08 09:28:28;;;;;;;17.97;11.90;;;3.40;99.90;;;;;;5069052;28;20494;-69
2021/12/08 09:31:02;;;;;;;20.50;11.57;;;3.60;99.90;;;;;;5069392;28;20452;-73
2021/12/08 09:33:37;;;;;;;17.13;11.87;;;3.60;99.90;;;;;;5069188;28;20514;-70
2021/12/08 09:36:10;;;;;;;18.03;10.93;;;3.60;99.90;;;;;;5069387;28;20559;-70
2021/12/08 09:38:43;;;;;;;17.43;12.13;;;3.80;99.90;;;;;;5068717;28;20454;-73
2021/12/08 09:41:14;;;;;;;20.40;12.33;;;3.80;99.90;;;;;;5068954;28;20457;-73
2021/12/08 09:43:45;;;;;;;15.90;9.83;;;3.80;99.90;;;;;;5068983;28;20487;-69
2021/12/08 09:46:15;;;;;;;20.10;12.23;;;3.70;99.90;;;;;;5068829;28;20480;-70
2021/12/08 09:48:44;;;;;;;18.77;11.57;;;4.00;99.90;;;;;;5069062;28;20496;-73
2021/12/08 09:51:13;;;;;;;18.17;12.33;;;4.10;99.90;;;;;;5068686;28;20449;-73
2021/12/08 09:53:44;;;;;;;16.67;10.97;;;4.00;99.90;;;;;;5068970;28;20943;-72
2021/12/08 09:56:12;;;;;;;17.90;11.40;;;3.90;99.90;;;;;;5072584;28;20527;-75
2021/12/08 09:58:40;;;;;;;17.97;12.57;;;4.00;99.90;;;;;;5073106;28;20980;-76
2021/12/08 10:01:13;;;;;;;15.73;11.23;;;4.10;99.90;;;;;;5073103;28;20459;-73
2021/12/08 10:03:40;;;;;;;17.23;12.93;;;4.20;99.90;;;;;;5073274;28;20937;-73
2021/12/08 10:06:09;;;;;;;19.00;12.13;;;4.20;99.90;;;;;;5072824;28;20624;-71
2021/12/08 10:08:36;;;;;;;14.47;11.10;;;4.20;99.90;;;;;;5072843;28;20499;-74
2021/12/08 10:11:05;;;;;;;17.03;12.37;;;4.30;99.90;;;;;;5073130;28;20555;-74
2021/12/08 10:13:32;;;;;;;17.47;12.30;;;4.40;99.90;;;;;;5072661;28;20961;-74
2021/12/08 10:15:59;;;;;;;18.80;13.07;;;4.40;99.90;;;;;;5072542;28;20477;-76
2021/12/08 10:18:26;;;;;;;19.70;12.30;;;4.50;99.90;;;;;;5072715;28;20506;-74
2021/12/08 10:20:56;;;;;;;18.00;11.77;;;4.70;99.90;;;;;;5072773;28;20504;-75
2021/12/08 10:23:27;;;;;;;20.73;12.43;;;4.70;99.90;;;;;;5072511;28;20479;-72
2021/12/08 10:25:56;;;;;;;15.88;11.35;;;4.70;99.90;;;;;;5072153;28;20926;-73
2021/12/08 10:28:29;;;;;;;16.80;11.13;;;4.50;99.90;;;;;;5073352;28;20234;-76
2021/12/08 10:30:58;;;;;;;19.63;12.48;;;4.60;99.90;;;;;;5072136;28;20873;-73
2021/12/08 10:34:00;;;;;;;16.20;11.77;;;4.70;99.90;;;;;;5073115;28;20680;-72
2021/12/08 10:36:45;;;;;;;18.40;13.57;;;4.90;99.90;;;;;;5072987;28;20487;-77
2021/12/08 10:39:22;;;;;;;19.30;12.27;;;5.00;99.90;;;;;;5072289;28;20467;-80
2021/12/08 10:41:54;;;;;;;18.20;11.90;;;5.00;99.90;;;;;;5072605;28;20456;-74
2021/12/08 10:44:25;;;;;;;16.40;11.80;;;5.20;99.90;;;;;;5072158;28;20948;-72
2021/12/08 10:46:56;;;;;;;19.90;12.57;;;5.20;99.90;;;;;;5072417;28;20498;-73
2021/12/08 10:54:22;;;;;;;17.93;13.00;;;5.20;99.90;;;;;;5072224;28;20948;-74
2021/12/08 10:54:55;;;;;;;18.00;13.13;;;5.50;99.90;;;;;;5072130;28;20435;-74
2021/12/08 10:57:25;;;;;;;16.30;12.30;;;5.50;99.90;;;;;;5072114;28;20476;-73
2021/12/08 10:59:59;;;;;;;17.70;13.20;;;5.60;99.90;;;;;;5071705;28;20453;-72
2021/12/08 11:02:48;;;;;;;17.33;12.33;;;5.80;99.90;;;;;;5071962;28;20455;-73
2021/12/08 11:05:52;;;;;;;18.27;12.97;;;6.10;99.90;;;;;;5071743;28;20484;-73
2021/12/08 11:08:24;;;;;;;17.93;11.87;;;6.20;99.90;;;;;;5071376;28;20863;-75
2021/12/08 11:10:54;;;;;;;14.57;10.07;;;6.20;99.90;;;;;;5071671;28;20464;-74
2021/12/08 11:13:24;;;;;;;15.43;11.00;;;6.30;99.90;;;;;;5071330;28;20993;-72
2021/12/08 11:16:04;;;;;;;16.90;11.80;;;6.50;99.90;;;;;;5071099;28;20537;-74
2021/12/08 11:18:32;;;;;;;17.70;11.57;;;7.00;99.90;;;;;;5071972;28;20457;-73
2021/12/08 11:21:02;;;;;;;15.80;10.77;;;7.50;99.90;;;;;;5071305;28;20465;-71
2021/12/08 11:23:42;;;;;;;21.30;12.43;;;8.00;99.90;;;;;;5071280;28;20509;-77
2021/12/08 11:26:33;;;;;;;16.10;10.83;;;8.30;99.90;;;;;;5071223;28;20994;-74
2021/12/08 11:29:04;;;;;;;16.03;11.50;;;8.30;99.90;;;;;;5068488;28;20585;-71
2021/12/08 11:31:38;;;;;;;15.80;12.67;;;8.10;99.90;;;;;;5071276;28;20970;-75
2021/12/08 11:34:10;;;;;;;17.67;12.33;;;8.30;99.90;;;;;;5071288;28;20456;-74
2021/12/08 11:36:39;;;;;;;19.83;13.00;;;8.20;99.90;;;;;;5070848;28;20484;-76
2021/12/08 11:39:15;;;;;;;18.07;12.43;;;8.60;99.90;;;;;;5071376;28;20498;-75
2021/12/08 11:41:44;;;;;;;18.15;12.13;;;8.80;99.90;;;;;;5069953;28;20482;-73
2021/12/08 11:44:15;;;;;;;15.20;12.33;;;8.80;99.90;;;;;;5070712;28;20630;-73
2021/12/08 11:46:48;;;;;;;14.97;11.67;;;8.60;99.90;;;;;;5071131;28;20479;-74
2021/12/08 11:49:15;;;;;;;16.87;11.40;;;8.60;99.90;;;;;;5071060;28;20491;-72
2021/12/08 11:52:05;;;;;;;18.13;12.20;;;9.20;99.90;;;;;;5070052;28;20979;-72
2021/12/08 11:54:39;;;;;;;16.70;11.97;;;9.40;99.90;;;;;;5070762;28;20206;-72
2021/12/08 11:57:10;;;;;;;18.53;13.63;;;9.00;99.90;;;;;;5070427;28;20996;-75
2021/12/08 12:00:00;;;;;;;17.70;14.00;;;9.30;99.90;;;;;;5070880;28;20457;-73
2021/12/08 12:02:32;;;;;;;18.43;14.07;;;9.80;99.90;;;;;;5071055;28;20448;-73
2021/12/08 12:05:01;;;;;;;18.13;12.43;;;10.50;99.90;;;;;;5070334;28;20803;-74
2021/12/08 12:07:29;;;;;;;14.87;11.67;;;10.80;99.90;;;;;;5070556;28;20562;-74
2021/12/08 12:09:56;;;;;;;22.40;14.40;;;11.00;99.90;;;;;;5070868;28;20445;-72
2021/12/08 12:12:23;;;;;;;19.10;12.23;;;10.80;99.90;;;;;;5069096;28;20492;-73
2021/12/08 12:14:50;;;;;;;17.58;13.35;;;10.80;99.90;;;;;;5068190;28;20446;-73
2021/12/08 12:17:18;;;;;;;19.20;14.90;;;10.70;99.90;;;;;;5068980;28;20237;-74
2021/12/08 12:20:03;;;;;;;17.63;13.53;;;11.00;99.90;;;;;;5070817;28;20453;-73
2021/12/08 12:22:49;;;;;;;15.80;12.03;;;9.80;99.90;;;;;;5070375;28;20453;-73
2021/12/08 12:25:41;;;;;;;18.83;12.10;;;9.30;99.90;;;;;;5070546;28;20470;-72
2021/12/08 12:28:46;;;;;;;15.33;11.67;;;8.80;99.90;;;;;;5066704;28;20812;-73
2021/12/08 12:31:22;;;;;;;15.03;12.00;;;9.40;99.90;;;;;;5070392;28;20457;-71
2021/12/08 12:33:51;;;;;;;17.80;13.40;;;9.80;99.90;;;;;;5070242;28;20868;-74
2021/12/08 12:36:22;;;;;;;16.30;11.70;;;9.70;99.90;;;;;;5069755;28;20992;-73
2021/12/08 12:38:50;;;;;;;18.20;13.43;;;9.60;99.90;;;;;;5070281;28;20859;-72
2021/12/08 12:41:26;;;;;;;17.53;13.00;;;9.40;99.90;;;;;;5070181;28;20925;-75
2021/12/08 12:44:14;;;;;;;15.87;11.60;;;9.20;99.90;;;;;;5069799;28;20453;-73
2021/12/08 12:47:14;;;;;;;25.67;13.40;;;9.10;99.90;;;;;;5069909;28;20449;-73
2021/12/08 12:49:44;;;;;;;18.33;13.67;;;8.90;99.90;;;;;;5070073;28;20499;-75
2021/12/08 12:52:14;;;;;;;20.07;12.57;;;8.60;99.90;;;;;;5069630;28;20457;-73
2021/12/08 12:54:43;;;;;;;16.20;12.33;;;8.60;99.90;;;;;;5069696;28;20452;-74
2021/12/08 12:57:12;;;;;;;16.20;11.07;;;8.50;99.90;;;;;;5070011;28;20890;-72
2021/12/08 12:59:42;;;;;;;13.63;10.10;;;8.70;99.90;;;;;;5069681;28;20929;-74
2021/12/08 13:02:11;;;;;;;21.43;14.20;;;8.60;99.90;;;;;;5069702;28;20451;-75
2021/12/08 13:04:53;;;;;;;18.83;12.40;;;8.10;99.90;;;;;;5069590;28;20470;-73
2021/12/08 13:07:22;;;;;;;18.70;11.57;;;7.80;99.90;;;;;;5069343;28;20473;-71
2021/12/08 13:09:52;;;;;;;17.47;11.53;;;7.50;99.90;;;;;;5069409;28;20997;-72
2021/12/08 13:12:22;;;;;;;18.83;11.77;;;7.10;99.90;;;;;;5068638;28;20502;-73
2021/12/08 13:15:06;;;;;;;16.93;10.80;;;6.80;99.90;;;;;;5069867;28;20977;-74
2021/12/08 13:17:34;;;;;;;18.20;11.47;;;6.50;99.90;;;;;;5069523;28;20943;-74
2021/12/08 13:20:04;;;;;;;17.47;12.20;;;6.20;99.90;;;;;;5069294;28;20453;-70
2021/12/08 13:22:53;;;;;;;20.10;12.13;;;6.10;99.90;;;;;;5069303;28;20465;-72
2021/12/08 13:25:54;;;;;;;13.20;10.23;;;6.10;99.90;;;;;;5068908;28;20454;-74
2021/12/08 13:28:27;;;;;;;19.00;10.17;;;5.80;99.90;;;;;;5069081;28;20533;-74
2021/12/08 13:31:00;;;;;;;13.97;9.87;;;5.60;99.90;;;;;;5069513;28;20813;-71
2021/12/08 13:33:36;;;;;;;15.97;11.80;;;5.40;99.90;;;;;;5069607;28;20514;-75